sensor_id;sensor_type;location;lat;lon;timestamp;pressure;altitude;pressure_sealevel;temperature;humidity
22649;BME280;11491;41.942;24.220;2022-11-03T00:02:05;90468.44;;;6.35;70.52
22649;BME280;11491;41.942;24.220;2022-11-03T00:04:32;90469.47;;;6.25;70.71
22649;BME280;11491;41.942;24.220;2022-11-03T00:06:58;90478.53;;;6.24;71.03
22649;BME280;11491;41.942;24.220;2022-11-03T00:09:25;90470.75;;;6.28;71.09
22649;BME280;11491;41.942;24.220;2022-11-03T00:11:52;90476.00;;;6.19;70.93
22649;BME280;11491;41.942;24.220;2022-11-03T00:14:20;90481.59;;;6.40;70.22
22649;BME280;11491;41.942;24.220;2022-11-03T00:16:47;90468.28;;;6.32;69.98
22649;BME280;11491;41.942;24.220;2022-11-03T00:19:14;90474.78;;;6.25;70.44
22649;BME280;11491;41.942;24.220;2022-11-03T00:21:41;90467.63;;;6.26;70.04
22649;BME280;11491;41.942;24.220;2022-11-03T00:24:08;90475.41;;;6.22;70.42
22649;BME280;11491;41.942;24.220;2022-11-03T00:26:35;90477.44;;;6.25;70.63
22649;BME280;11491;41.942;24.220;2022-11-03T00:29:06;90477.19;;;6.13;71.55
22649;BME280;11491;41.942;24.220;2022-11-03T00:31:36;90480.66;;;6.36;70.36
22649;BME280;11491;41.942;24.220;2022-11-03T00:34:03;90471.06;;;6.27;70.39
22649;BME280;11491;41.942;24.220;2022-11-03T00:36:34;90476.38;;;6.27;70.75
22649;BME280;11491;41.942;24.220;2022-11-03T00:39:01;90473.03;;;6.21;70.83
22649;BME280;11491;41.942;24.220;2022-11-03T00:41:28;90478.66;;;6.19;70.86
22649;BME280;11491;41.942;24.220;2022-11-03T00:43:55;90479.16;;;6.21;70.88
22649;BME280;11491;41.942;24.220;2022-11-03T00:46:23;90472.13;;;6.25;70.84
22649;BME280;11491;41.942;24.220;2022-11-03T00:48:52;90478.06;;;6.00;72.44
22649;BME280;11491;41.942;24.220;2022-11-03T00:51:21;90469.59;;;5.98;72.35
22649;BME280;11491;41.942;24.220;2022-11-03T00:53:50;90472.91;;;6.03;71.44
22649;BME280;11491;41.942;24.220;2022-11-03T00:56:18;90464.03;;;6.08;72.04
22649;BME280;11491;41.942;24.220;2022-11-03T00:58:46;90474.75;;;6.17;71.88
22649;BME280;11491;41.942;24.220;2022-11-03T01:01:15;90473.59;;;6.09;71.77
22649;BME280;11491;41.942;24.220;2022-11-03T01:03:44;90473.47;;;6.14;71.30
22649;BME280;11491;41.942;24.220;2022-11-03T01:06:33;90464.66;;;6.05;71.26
22649;BME280;11491;41.942;24.220;2022-11-03T01:09:15;90459.72;;;6.12;71.65
22649;BME280;11491;41.942;24.220;2022-11-03T01:11:42;90467.19;;;6.10;72.01
22649;BME280;11491;41.942;24.220;2022-11-03T01:14:15;90459.47;;;6.00;71.70
22649;BME280;11491;41.942;24.220;2022-11-03T01:16:42;90459.97;;;6.02;71.84
22649;BME280;11491;41.942;24.220;2022-11-03T01:19:09;90443.44;;;5.91;72.25
22649;BME280;11491;41.942;24.220;2022-11-03T01:21:37;90457.19;;;6.07;71.98
22649;BME280;11491;41.942;24.220;2022-11-03T01:24:04;90453.31;;;6.13;71.66
22649;BME280;11491;41.942;24.220;2022-11-03T01:26:31;90460.06;;;6.19;71.58
22649;BME280;11491;41.942;24.220;2022-11-03T01:28:59;90450.66;;;6.13;71.37
22649;BME280;11491;41.942;24.220;2022-11-03T01:31:26;90454.66;;;6.02;72.17
22649;BME280;11491;41.942;24.220;2022-11-03T01:33:55;90455.25;;;5.99;72.25
22649;BME280;11491;41.942;24.220;2022-11-03T01:36:22;90456.94;;;5.95;72.29
22649;BME280;11491;41.942;24.220;2022-11-03T01:38:50;90457.78;;;6.04;72.51
22649;BME280;11491;41.942;24.220;2022-11-03T01:41:20;90450.28;;;6.06;73.18
22649;BME280;11491;41.942;24.220;2022-11-03T01:43:50;90443.78;;;6.12;72.68
22649;BME280;11491;41.942;24.220;2022-11-03T01:46:18;90443.88;;;6.30;71.73
22649;BME280;11491;41.942;24.220;2022-11-03T01:48:50;90451.72;;;6.35;71.96
22649;BME280;11491;41.942;24.220;2022-11-03T01:51:22;90455.13;;;6.27;71.78
22649;BME280;11491;41.942;24.220;2022-11-03T01:53:53;90451.38;;;6.28;72.13
22649;BME280;11491;41.942;24.220;2022-11-03T01:56:21;90450.41;;;6.23;72.61
22649;BME280;11491;41.942;24.220;2022-11-03T01:58:50;90445.94;;;6.33;71.94
22649;BME280;11491;41.942;24.220;2022-11-03T02:01:19;90453.28;;;6.36;71.42
22649;BME280;11491;41.942;24.220;2022-11-03T02:03:48;90448.84;;;6.22;72.24
22649;BME280;11491;41.942;24.220;2022-11-03T02:06:18;90452.34;;;6.32;71.81
22649;BME280;11491;41.942;24.220;2022-11-03T02:08:48;90456.88;;;6.31;72.37
22649;BME280;11491;41.942;24.220;2022-11-03T02:11:17;90451.47;;;6.45;71.40
22649;BME280;11491;41.942;24.220;2022-11-03T02:14:16;90445.19;;;6.41;71.80
22649;BME280;11491;41.942;24.220;2022-11-03T02:16:46;90447.38;;;6.39;72.03
22649;BME280;11491;41.942;24.220;2022-11-03T02:19:19;90454.59;;;6.47;72.26
22649;BME280;11491;41.942;24.220;2022-11-03T02:21:55;90451.81;;;6.52;72.24
22649;BME280;11491;41.942;24.220;2022-11-03T02:24:30;90456.16;;;6.48;71.74
22649;BME280;11491;41.942;24.220;2022-11-03T02:27:03;90454.22;;;6.62;72.46
22649;BME280;11491;41.942;24.220;2022-11-03T02:29:30;90443.09;;;6.60;71.68
22649;BME280;11491;41.942;24.220;2022-11-03T02:32:03;90455.97;;;6.76;71.27
22649;BME280;11491;41.942;24.220;2022-11-03T02:34:37;90443.78;;;6.75;71.32
22649;BME280;11491;41.942;24.220;2022-11-03T02:37:07;90450.06;;;6.79;71.70
22649;BME280;11491;41.942;24.220;2022-11-03T02:39:37;90450.22;;;6.82;71.83
22649;BME280;11491;41.942;24.220;2022-11-03T02:42:08;90455.81;;;6.72;72.08
22649;BME280;11491;41.942;24.220;2022-11-03T02:44:37;90455.66;;;6.68;72.49
22649;BME280;11491;41.942;24.220;2022-11-03T02:47:06;90445.03;;;6.68;73.42
22649;BME280;11491;41.942;24.220;2022-11-03T02:49:37;90443.31;;;6.73;73.03
22649;BME280;11491;41.942;24.220;2022-11-03T02:52:06;90431.41;;;6.61;73.67
22649;BME280;11491;41.942;24.220;2022-11-03T02:54:35;90445.34;;;6.76;73.70
22649;BME280;11491;41.942;24.220;2022-11-03T02:57:09;90442.31;;;6.91;73.36
22649;BME280;11491;41.942;24.220;2022-11-03T02:59:44;90450.81;;;7.10;72.19
22649;BME280;11491;41.942;24.220;2022-11-03T03:02:15;90450.66;;;6.76;73.04
22649;BME280;11491;41.942;24.220;2022-11-03T03:04:47;90448.41;;;6.92;73.31
22649;BME280;11491;41.942;24.220;2022-11-03T03:07:20;90457.16;;;6.92;73.64
22649;BME280;11491;41.942;24.220;2022-11-03T03:09:53;90452.50;;;7.06;72.78
22649;BME280;11491;41.942;24.220;2022-11-03T03:12:25;90452.84;;;7.14;73.21
22649;BME280;11491;41.942;24.220;2022-11-03T03:14:53;90456.44;;;7.18;72.11
22649;BME280;11491;41.942;24.220;2022-11-03T03:17:24;90452.38;;;7.11;72.86
22649;BME280;11491;41.942;24.220;2022-11-03T03:20:01;90439.56;;;7.14;72.63
22649;BME280;11491;41.942;24.220;2022-11-03T03:22:32;90454.59;;;7.27;72.94
22649;BME280;11491;41.942;24.220;2022-11-03T03:25:06;90449.59;;;7.34;72.78
22649;BME280;11491;41.942;24.220;2022-11-03T03:27:45;90451.81;;;7.41;72.81
22649;BME280;11491;41.942;24.220;2022-11-03T03:30:13;90453.56;;;7.54;72.70
22649;BME280;11491;41.942;24.220;2022-11-03T03:32:43;90449.63;;;7.60;72.03
22649;BME280;11491;41.942;24.220;2022-11-03T03:35:15;90454.97;;;7.69;71.51
22649;BME280;11491;41.942;24.220;2022-11-03T03:37:45;90458.44;;;7.61;71.88
22649;BME280;11491;41.942;24.220;2022-11-03T03:40:16;90448.09;;;7.68;72.07
22649;BME280;11491;41.942;24.220;2022-11-03T03:42:46;90447.94;;;7.73;71.68
22649;BME280;11491;41.942;24.220;2022-11-03T03:45:14;90455.75;;;7.69;71.86
22649;BME280;11491;41.942;24.220;2022-11-03T03:47:42;90462.34;;;7.72;71.74
22649;BME280;11491;41.942;24.220;2022-11-03T03:50:10;90452.78;;;7.71;71.89
22649;BME280;11491;41.942;24.220;2022-11-03T03:52:37;90452.16;;;7.74;72.21
22649;BME280;11491;41.942;24.220;2022-11-03T03:55:06;90441.34;;;7.79;71.24
22649;BME280;11491;41.942;24.220;2022-11-03T03:57:37;90450.75;;;7.68;71.53
22649;BME280;11491;41.942;24.220;2022-11-03T04:00:07;90449.34;;;7.62;71.89
22649;BME280;11491;41.942;24.220;2022-11-03T04:02:34;90444.97;;;7.66;71.76
22649;BME280;11491;41.942;24.220;2022-11-03T04:05:01;90459.97;;;7.62;71.84
22649;BME280;11491;41.942;24.220;2022-11-03T04:07:28;90447.78;;;7.61;72.14
22649;BME280;11491;41.942;24.220;2022-11-03T04:10:13;90445.44;;;7.68;71.75
22649;BME280;11491;41.942;24.220;2022-11-03T04:12:40;90447.47;;;7.71;71.44
22649;BME280;11491;41.942;24.220;2022-11-03T04:15:25;90455.91;;;7.55;72.14
22649;BME280;11491;41.942;24.220;2022-11-03T04:18:10;90455.25;;;7.41;73.14
22649;BME280;11491;41.942;24.220;2022-11-03T04:20:54;90458.72;;;7.50;72.27
22649;BME280;11491;41.942;24.220;2022-11-03T04:23:38;90450.91;;;7.45;72.70
22649;BME280;11491;41.942;24.220;2022-11-03T04:26:10;90452.44;;;7.46;72.67
22649;BME280;11491;41.942;24.220;2022-11-03T04:28:37;90433.66;;;7.34;72.88
22649;BME280;11491;41.942;24.220;2022-11-03T04:31:09;90440.84;;;7.42;72.92
22649;BME280;11491;41.942;24.220;2022-11-03T04:33:36;90422.72;;;7.44;72.63
22649;BME280;11491;41.942;24.220;2022-11-03T04:36:09;90438.06;;;7.65;71.89
22649;BME280;11491;41.942;24.220;2022-11-03T04:38:38;90440.41;;;7.58;72.14
22649;BME280;11491;41.942;24.220;2022-11-03T04:41:12;90449.00;;;7.54;72.23
22649;BME280;11491;41.942;24.220;2022-11-03T04:43:40;90450.25;;;7.48;72.77
22649;BME280;11491;41.942;24.220;2022-11-03T04:46:10;90443.69;;;7.54;72.30
22649;BME280;11491;41.942;24.220;2022-11-03T04:48:38;90445.25;;;7.38;72.62
22649;BME280;11491;41.942;24.220;2022-11-03T04:51:12;90451.19;;;7.52;72.32
22649;BME280;11491;41.942;24.220;2022-11-03T04:53:43;90446.97;;;7.51;72.41
22649;BME280;11491;41.942;24.220;2022-11-03T04:56:14;90455.28;;;7.59;71.87
22649;BME280;11491;41.942;24.220;2022-11-03T04:58:41;90444.94;;;7.48;71.85
22649;BME280;11491;41.942;24.220;2022-11-03T05:01:12;90456.34;;;7.40;72.44
22649;BME280;11491;41.942;24.220;2022-11-03T05:03:41;90457.78;;;7.46;72.63
22649;BME280;11491;41.942;24.220;2022-11-03T05:06:11;90457.91;;;7.50;72.49
22649;BME280;11491;41.942;24.220;2022-11-03T05:08:39;90465.44;;;7.57;72.93
22649;BME280;11491;41.942;24.220;2022-11-03T05:11:15;90477.06;;;7.61;72.34
22649;BME280;11491;41.942;24.220;2022-11-03T05:13:43;90464.53;;;7.70;72.29
22649;BME280;11491;41.942;24.220;2022-11-03T05:16:11;90465.63;;;7.69;72.41
22649;BME280;11491;41.942;24.220;2022-11-03T05:18:39;90464.97;;;7.54;72.33
22649;BME280;11491;41.942;24.220;2022-11-03T05:21:09;90469.84;;;7.61;72.79
22649;BME280;11491;41.942;24.220;2022-11-03T05:23:38;90468.75;;;7.53;72.90
22649;BME280;11491;41.942;24.220;2022-11-03T05:26:10;90472.22;;;7.80;72.52
22649;BME280;11491;41.942;24.220;2022-11-03T05:28:38;90475.66;;;7.72;73.22
22649;BME280;11491;41.942;24.220;2022-11-03T05:31:20;90475.97;;;7.79;73.44
22649;BME280;11491;41.942;24.220;2022-11-03T05:33:48;90476.75;;;7.88;73.65
22649;BME280;11491;41.942;24.220;2022-11-03T05:36:19;90481.31;;;7.96;73.46
22649;BME280;11491;41.942;24.220;2022-11-03T05:38:46;90478.50;;;8.10;73.43
22649;BME280;11491;41.942;24.220;2022-11-03T05:41:15;90487.72;;;8.22;73.57
22649;BME280;11491;41.942;24.220;2022-11-03T05:43:45;90494.44;;;8.36;73.79
22649;BME280;11491;41.942;24.220;2022-11-03T05:46:18;90488.81;;;8.47;72.71
22649;BME280;11491;41.942;24.220;2022-11-03T05:48:45;90481.59;;;8.38;72.31
22649;BME280;11491;41.942;24.220;2022-11-03T05:51:17;90497.59;;;8.38;72.50
22649;BME280;11491;41.942;24.220;2022-11-03T05:53:46;90491.00;;;8.45;72.60
22649;BME280;11491;41.942;24.220;2022-11-03T05:56:17;90503.69;;;8.56;72.28
22649;BME280;11491;41.942;24.220;2022-11-03T05:58:45;90503.53;;;8.61;72.40
22649;BME280;11491;41.942;24.220;2022-11-03T06:01:18;90512.59;;;8.69;72.63
22649;BME280;11491;41.942;24.220;2022-11-03T06:03:46;90510.06;;;8.81;72.80
22649;BME280;11491;41.942;24.220;2022-11-03T06:06:17;90516.66;;;8.93;72.52
22649;BME280;11491;41.942;24.220;2022-11-03T06:08:44;90519.50;;;8.88;71.97
22649;BME280;11491;41.942;24.220;2022-11-03T06:11:23;90525.72;;;8.92;71.81
22649;BME280;11491;41.942;24.220;2022-11-03T06:13:51;90528.25;;;8.97;72.09
22649;BME280;11491;41.942;24.220;2022-11-03T06:16:35;90525.41;;;9.02;72.44
22649;BME280;11491;41.942;24.220;2022-11-03T06:19:18;90531.31;;;9.16;71.84
22649;BME280;11491;41.942;24.220;2022-11-03T06:21:45;90530.97;;;9.26;72.09
22649;BME280;11491;41.942;24.220;2022-11-03T06:24:13;90533.63;;;9.26;70.92
22649;BME280;11491;41.942;24.220;2022-11-03T06:26:42;90537.25;;;9.31;71.78
22649;BME280;11491;41.942;24.220;2022-11-03T06:29:13;90538.91;;;9.44;72.08
22649;BME280;11491;41.942;24.220;2022-11-03T06:31:42;90531.66;;;9.53;71.22
22649;BME280;11491;41.942;24.220;2022-11-03T06:34:32;90537.75;;;9.62;71.01
22649;BME280;11491;41.942;24.220;2022-11-03T06:37:09;90536.44;;;9.68;70.63
22649;BME280;11491;41.942;24.220;2022-11-03T06:39:38;90534.13;;;9.88;70.51
22649;BME280;11491;41.942;24.220;2022-11-03T06:42:10;90541.47;;;10.21;70.58
22649;BME280;11491;41.942;24.220;2022-11-03T06:44:39;90534.06;;;10.47;69.40
22649;BME280;11491;41.942;24.220;2022-11-03T06:47:17;90537.88;;;10.80;68.83
22649;BME280;11491;41.942;24.220;2022-11-03T06:49:46;90530.81;;;10.96;67.32
22649;BME280;11491;41.942;24.220;2022-11-03T06:52:22;90530.72;;;11.05;67.06
22649;BME280;11491;41.942;24.220;2022-11-03T06:54:54;90533.53;;;11.08;66.88
22649;BME280;11491;41.942;24.220;2022-11-03T06:57:21;90526.56;;;11.28;67.41
22649;BME280;11491;41.942;24.220;2022-11-03T06:59:49;90532.13;;;11.48;66.58
22649;BME280;11491;41.942;24.220;2022-11-03T07:05:19;90531.28;;;11.68;65.62
22649;BME280;11491;41.942;24.220;2022-11-03T07:07:46;90523.03;;;11.73;65.24
22649;BME280;11491;41.942;24.220;2022-11-03T07:10:13;90528.19;;;11.91;64.17
22649;BME280;11491;41.942;24.220;2022-11-03T07:12:40;90527.28;;;11.99;62.87
22649;BME280;11491;41.942;24.220;2022-11-03T07:15:17;90535.31;;;11.99;63.94
22649;BME280;11491;41.942;24.220;2022-11-03T07:17:46;90529.72;;;11.92;62.32
22649;BME280;11491;41.942;24.220;2022-11-03T07:20:14;90533.53;;;11.91;62.95
22649;BME280;11491;41.942;24.220;2022-11-03T07:22:42;90523.50;;;11.88;63.06
22649;BME280;11491;41.942;24.220;2022-11-03T07:25:14;90528.03;;;12.12;63.88
22649;BME280;11491;41.942;24.220;2022-11-03T07:27:41;90531.47;;;12.37;63.75
22649;BME280;11491;41.942;24.220;2022-11-03T07:30:17;90522.66;;;12.64;64.96
22649;BME280;11491;41.942;24.220;2022-11-03T07:32:47;90516.59;;;12.80;62.19
22649;BME280;11491;41.942;24.220;2022-11-03T07:35:28;90513.63;;;12.97;62.58
22649;BME280;11491;41.942;24.220;2022-11-03T07:37:57;90517.78;;;13.10;61.96
22649;BME280;11491;41.942;24.220;2022-11-03T07:40:27;90519.72;;;13.26;62.21
22649;BME280;11491;41.942;24.220;2022-11-03T07:42:57;90519.44;;;13.43;62.95
22649;BME280;11491;41.942;24.220;2022-11-03T07:45:37;90509.03;;;13.57;61.10
22649;BME280;11491;41.942;24.220;2022-11-03T07:48:23;90516.31;;;13.73;63.49
22649;BME280;11491;41.942;24.220;2022-11-03T07:50:52;90499.50;;;13.76;61.48
22649;BME280;11491;41.942;24.220;2022-11-03T07:53:23;90492.81;;;13.86;61.92
22649;BME280;11491;41.942;24.220;2022-11-03T07:55:52;90497.91;;;14.07;62.19
22649;BME280;11491;41.942;24.220;2022-11-03T07:58:22;90497.53;;;14.24;61.43
22649;BME280;11491;41.942;24.220;2022-11-03T08:00:53;90498.25;;;14.40;60.75
22649;BME280;11491;41.942;24.220;2022-11-03T08:03:34;90498.13;;;14.53;59.86
22649;BME280;11491;41.942;24.220;2022-11-03T08:06:03;90495.75;;;14.67;59.28
22649;BME280;11491;41.942;24.220;2022-11-03T08:08:30;90494.47;;;14.80;59.06
22649;BME280;11491;41.942;24.220;2022-11-03T08:10:56;90487.47;;;14.95;58.49
22649;BME280;11491;41.942;24.220;2022-11-03T08:13:23;90491.78;;;15.19;57.75
22649;BME280;11491;41.942;24.220;2022-11-03T08:15:50;90485.59;;;15.61;57.21
22649;BME280;11491;41.942;24.220;2022-11-03T08:18:16;90491.25;;;16.02;56.04
22649;BME280;11491;41.942;24.220;2022-11-03T08:20:45;90488.59;;;16.86;54.95
22649;BME280;11491;41.942;24.220;2022-11-03T08:23:11;90479.75;;;17.60;52.65
22649;BME280;11491;41.942;24.220;2022-11-03T08:25:38;90480.34;;;18.32;49.45
22649;BME280;11491;41.942;24.220;2022-11-03T08:28:05;90475.34;;;19.07;47.99
22649;BME280;11491;41.942;24.220;2022-11-03T08:30:32;90476.34;;;19.79;45.99
22649;BME280;11491;41.942;24.220;2022-11-03T08:32:59;90479.84;;;20.44;42.89
22649;BME280;11491;41.942;24.220;2022-11-03T08:35:26;90474.72;;;20.89;42.28
22649;BME280;11491;41.942;24.220;2022-11-03T08:37:54;90462.91;;;21.35;41.49
22649;BME280;11491;41.942;24.220;2022-11-03T08:40:21;90474.22;;;22.04;40.31
22649;BME280;11491;41.942;24.220;2022-11-03T08:42:47;90468.28;;;22.65;40.34
22649;BME280;11491;41.942;24.220;2022-11-03T08:45:15;90469.34;;;23.16;37.76
22649;BME280;11491;41.942;24.220;2022-11-03T08:47:42;90467.13;;;23.69;35.64
22649;BME280;11491;41.942;24.220;2022-11-03T08:50:09;90467.91;;;23.73;30.22
22649;BME280;11491;41.942;24.220;2022-11-03T08:52:36;90465.28;;;23.93;30.69
22649;BME280;11491;41.942;24.220;2022-11-03T08:55:07;90466.34;;;23.99;29.69
22649;BME280;11491;41.942;24.220;2022-11-03T08:57:34;90464.50;;;23.61;32.13
22649;BME280;11491;41.942;24.220;2022-11-03T09:00:02;90457.31;;;23.10;32.25
22649;BME280;11491;41.942;24.220;2022-11-03T09:02:33;90464.63;;;22.37;33.83
22649;BME280;11491;41.942;24.220;2022-11-03T09:04:59;90466.56;;;21.81;34.32
22649;BME280;11491;41.942;24.220;2022-11-03T09:07:26;90457.50;;;21.32;34.33
22649;BME280;11491;41.942;24.220;2022-11-03T09:09:53;90461.53;;;20.95;34.43
22649;BME280;11491;41.942;24.220;2022-11-03T09:12:21;90464.69;;;20.54;35.22
22649;BME280;11491;41.942;24.220;2022-11-03T09:14:48;90463.59;;;19.97;36.50
22649;BME280;11491;41.942;24.220;2022-11-03T09:17:15;90462.41;;;19.88;38.87
22649;BME280;11491;41.942;24.220;2022-11-03T09:19:41;90454.56;;;19.57;37.57
22649;BME280;11491;41.942;24.220;2022-11-03T09:22:08;90450.72;;;19.66;38.11
22649;BME280;11491;41.942;24.220;2022-11-03T09:24:35;90446.88;;;19.74;37.60
22649;BME280;11491;41.942;24.220;2022-11-03T09:27:05;90450.00;;;19.83;38.79
22649;BME280;11491;41.942;24.220;2022-11-03T09:29:33;90453.88;;;20.11;38.53
22649;BME280;11491;41.942;24.220;2022-11-03T09:31:59;90450.00;;;20.19;37.65
22649;BME280;11491;41.942;24.220;2022-11-03T09:34:26;90448.47;;;20.25;37.69
22649;BME280;11491;41.942;24.220;2022-11-03T09:36:54;90450.00;;;20.22;36.67
22649;BME280;11491;41.942;24.220;2022-11-03T09:39:21;90445.34;;;20.16;37.79
22649;BME280;11491;41.942;24.220;2022-11-03T09:41:48;90444.56;;;20.05;38.18
22649;BME280;11491;41.942;24.220;2022-11-03T09:44:15;90437.59;;;20.07;38.08
22649;BME280;11491;41.942;24.220;2022-11-03T09:46:43;90435.22;;;20.49;38.67
22649;BME280;11491;41.942;24.220;2022-11-03T09:49:11;90427.94;;;21.41;39.81
22649;BME280;11491;41.942;24.220;2022-11-03T09:51:40;90429.38;;;22.64;35.05
22649;BME280;11491;41.942;24.220;2022-11-03T09:54:11;90413.59;;;23.48;32.83
22649;BME280;11491;41.942;24.220;2022-11-03T09:56:39;90418.66;;;24.31;31.58
22649;BME280;11491;41.942;24.220;2022-11-03T09:59:13;90413.88;;;23.88;32.13
22649;BME280;11491;41.942;24.220;2022-11-03T10:01:43;90414.59;;;23.92;31.59
22649;BME280;11491;41.942;24.220;2022-11-03T10:04:13;90409.44;;;23.70;32.09
22649;BME280;11491;41.942;24.220;2022-11-03T10:06:40;90409.53;;;23.32;30.96
22649;BME280;11491;41.942;24.220;2022-11-03T10:09:13;90409.72;;;22.80;32.30
22649;BME280;11491;41.942;24.220;2022-11-03T10:11:41;90409.84;;;22.69;34.18
22649;BME280;11491;41.942;24.220;2022-11-03T10:14:10;90400.38;;;22.43;33.63
22649;BME280;11491;41.942;24.220;2022-11-03T10:16:39;90411.75;;;22.31;33.93
22649;BME280;11491;41.942;24.220;2022-11-03T10:19:11;90403.44;;;22.00;33.88
22649;BME280;11491;41.942;24.220;2022-11-03T10:21:39;90369.41;;;21.78;34.51
22649;BME280;11491;41.942;24.220;2022-11-03T10:24:10;90400.59;;;22.22;35.87
22649;BME280;11491;41.942;24.220;2022-11-03T10:26:43;90401.88;;;23.20;32.89
22649;BME280;11491;41.942;24.220;2022-11-03T10:29:17;90394.78;;;23.57;33.18
22649;BME280;11491;41.942;24.220;2022-11-03T10:31:46;90392.69;;;23.37;32.72
22649;BME280;11491;41.942;24.220;2022-11-03T10:34:31;90382.66;;;23.89;33.26
22649;BME280;11491;41.942;24.220;2022-11-03T10:37:18;90385.53;;;24.28;30.88
22649;BME280;11491;41.942;24.220;2022-11-03T10:39:47;90387.94;;;24.50;31.65
22649;BME280;11491;41.942;24.220;2022-11-03T10:42:17;90382.63;;;24.63;30.42
22649;BME280;11491;41.942;24.220;2022-11-03T10:44:45;90373.06;;;24.51;30.50
22649;BME280;11491;41.942;24.220;2022-11-03T10:47:22;90370.22;;;24.78;31.23
22649;BME280;11491;41.942;24.220;2022-11-03T10:49:51;90362.25;;;24.87;29.44
22649;BME280;11491;41.942;24.220;2022-11-03T10:52:20;90355.66;;;25.05;29.06
22649;BME280;11491;41.942;24.220;2022-11-03T10:54:49;90350.22;;;25.41;29.35
22649;BME280;11491;41.942;24.220;2022-11-03T10:57:17;90351.78;;;25.42;29.97
22649;BME280;11491;41.942;24.220;2022-11-03T10:59:46;90351.28;;;24.44;30.58
22649;BME280;11491;41.942;24.220;2022-11-03T11:02:16;90349.78;;;23.96;31.67
22649;BME280;11491;41.942;24.220;2022-11-03T11:04:46;90336.19;;;23.92;32.43
22649;BME280;11491;41.942;24.220;2022-11-03T11:07:25;90347.16;;;24.12;32.03
22649;BME280;11491;41.942;24.220;2022-11-03T11:09:54;90343.31;;;23.86;31.99
22649;BME280;11491;41.942;24.220;2022-11-03T11:12:23;90338.44;;;23.74;32.22
22649;BME280;11491;41.942;24.220;2022-11-03T11:14:51;90335.47;;;23.61;31.90
22649;BME280;11491;41.942;24.220;2022-11-03T11:17:39;90336.53;;;23.13;32.32
22649;BME280;11491;41.942;24.220;2022-11-03T11:20:34;90330.75;;;23.11;33.14
22649;BME280;11491;41.942;24.220;2022-11-03T11:26:16;90322.88;;;22.51;34.78
22649;BME280;11491;41.942;24.220;2022-11-03T11:28:44;90319.94;;;23.04;34.93
22649;BME280;11491;41.942;24.220;2022-11-03T11:31:29;90316.78;;;23.86;33.29
22649;BME280;11491;41.942;24.220;2022-11-03T11:37:33;90311.53;;;24.43;31.45
22649;BME280;11491;41.942;24.220;2022-11-03T11:40:02;90287.34;;;23.98;32.23
22649;BME280;11491;41.942;24.220;2022-11-03T11:42:30;90300.13;;;24.24;32.13
22649;BME280;11491;41.942;24.220;2022-11-03T11:45:01;90300.63;;;24.19;30.95
22649;BME280;11491;41.942;24.220;2022-11-03T11:47:42;90303.84;;;23.91;31.80
22649;BME280;11491;41.942;24.220;2022-11-03T11:50:27;90293.94;;;23.77;31.70
22649;BME280;11491;41.942;24.220;2022-11-03T11:53:13;90292.97;;;23.87;31.99
22649;BME280;11491;41.942;24.220;2022-11-03T11:55:48;90289.34;;;24.17;32.83
22649;BME280;11491;41.942;24.220;2022-11-03T11:58:23;90269.09;;;24.58;31.25
22649;BME280;11491;41.942;24.220;2022-11-03T12:00:57;90274.28;;;24.73;31.00
22649;BME280;11491;41.942;24.220;2022-11-03T12:03:28;90272.72;;;24.71;30.46
22649;BME280;11491;41.942;24.220;2022-11-03T12:05:55;90269.91;;;24.95;30.95
22649;BME280;11491;41.942;24.220;2022-11-03T12:08:27;90268.16;;;25.05;30.37
22649;BME280;11491;41.942;24.220;2022-11-03T12:10:56;90270.19;;;24.81;30.26
22649;BME280;11491;41.942;24.220;2022-11-03T12:16:29;90262.66;;;24.68;31.42
22649;BME280;11491;41.942;24.220;2022-11-03T12:18:56;90269.94;;;24.55;31.14
22649;BME280;11491;41.942;24.220;2022-11-03T12:21:44;90263.09;;;24.23;31.40
22649;BME280;11491;41.942;24.220;2022-11-03T12:24:35;90260.00;;;24.21;31.32
22649;BME280;11491;41.942;24.220;2022-11-03T12:27:03;90263.44;;;24.25;31.11
22649;BME280;11491;41.942;24.220;2022-11-03T12:29:43;90253.16;;;24.33;31.02
22649;BME280;11491;41.942;24.220;2022-11-03T12:32:10;90247.72;;;24.53;31.10
22649;BME280;11491;41.942;24.220;2022-11-03T12:34:36;90244.84;;;24.60;30.95
22649;BME280;11491;41.942;24.220;2022-11-03T12:37:03;90246.53;;;24.54;31.46
22649;BME280;11491;41.942;24.220;2022-11-03T12:39:30;90244.16;;;24.56;30.04
22649;BME280;11491;41.942;24.220;2022-11-03T12:41:57;90247.34;;;24.91;31.71
22649;BME280;11491;41.942;24.220;2022-11-03T12:44:23;90237.75;;;24.83;30.79
22649;BME280;11491;41.942;24.220;2022-11-03T12:46:51;90250.28;;;24.40;31.57
22649;BME280;11491;41.942;24.220;2022-11-03T12:49:18;90248.28;;;24.01;31.31
22649;BME280;11491;41.942;24.220;2022-11-03T12:51:45;90251.63;;;23.89;31.23
22649;BME280;11491;41.942;24.220;2022-11-03T12:54:12;90241.44;;;23.42;31.96
22649;BME280;11491;41.942;24.220;2022-11-03T12:56:38;90247.47;;;23.30;32.64
22649;BME280;11491;41.942;24.220;2022-11-03T12:59:05;90236.72;;;23.46;32.81
22649;BME280;11491;41.942;24.220;2022-11-03T13:01:32;90232.63;;;23.81;31.60
22649;BME280;11491;41.942;24.220;2022-11-03T13:04:00;90236.78;;;23.90;31.59
22649;BME280;11491;41.942;24.220;2022-11-03T13:06:30;90236.41;;;23.64;31.82
22649;BME280;11491;41.942;24.220;2022-11-03T13:08:56;90233.22;;;23.69;32.53
22649;BME280;11491;41.942;24.220;2022-11-03T13:11:23;90243.19;;;23.79;32.14
22649;BME280;11491;41.942;24.220;2022-11-03T13:14:07;90243.28;;;23.72;31.50
22649;BME280;11491;41.942;24.220;2022-11-03T13:16:34;90237.13;;;23.68;31.59
22649;BME280;11491;41.942;24.220;2022-11-03T13:19:02;90228.81;;;23.28;32.50
22649;BME280;11491;41.942;24.220;2022-11-03T13:21:29;90235.56;;;23.20;32.49
22649;BME280;11491;41.942;24.220;2022-11-03T13:23:56;90224.88;;;23.06;32.76
22649;BME280;11491;41.942;24.220;2022-11-03T13:26:23;90235.56;;;23.20;32.82